Terminal Aerodrome Forecast
Issued by NWS

Home | Current Version | Previous Version | Graphics & Text | Print | Product List | Glossary Off
Versions: 1 2 3 4 5 6 7 8 9 10 11 12

036
FTUS43 KICT 162338
TAFRSL
TAF
KRSL 162338Z 1700/1724 13007KT P6SM BKN250
     FM170300 VRB05KT P6SM BKN120
     FM171300 35010KT P6SM BKN025
     FM171800 35012KT P6SM SCT025 BKN040
     FM172000 34010KT P6SM SCT040=

USA.gov is the U.S. government's official web portal to all federal, state and local government web resources and services.